sensor_id;sensor_type;location;lat;lon;timestamp;P1;durP1;ratioP1;P2;durP2;ratioP2
3050;SDS011;1535;51.098;6.414;2023-09-12T00:00:46;4.30;;;4.30;;
3050;SDS011;1535;51.098;6.414;2023-09-12T00:03:14;4.60;;;4.60;;
3050;SDS011;1535;51.098;6.414;2023-09-12T00:05:41;4.70;;;4.70;;
3050;SDS011;1535;51.098;6.414;2023-09-12T00:08:16;4.27;;;4.27;;
3050;SDS011;1535;51.098;6.414;2023-09-12T00:10:43;4.83;;;4.83;;
3050;SDS011;1535;51.098;6.414;2023-09-12T00:13:11;8.50;;;8.40;;
3050;SDS011;1535;51.098;6.414;2023-09-12T00:15:38;9.60;;;9.40;;
3050;SDS011;1535;51.098;6.414;2023-09-12T00:18:05;9.10;;;8.90;;
3050;SDS011;1535;51.098;6.414;2023-09-12T00:20:32;8.27;;;8.17;;
3050;SDS011;1535;51.098;6.414;2023-09-12T00:23:00;9.00;;;8.80;;
3050;SDS011;1535;51.098;6.414;2023-09-12T00:25:26;7.90;;;7.80;;
3050;SDS011;1535;51.098;6.414;2023-09-12T00:27:53;7.80;;;7.70;;
3050;SDS011;1535;51.098;6.414;2023-09-12T00:30:22;7.37;;;7.27;;
3050;SDS011;1535;51.098;6.414;2023-09-12T00:32:50;7.50;;;7.40;;
3050;SDS011;1535;51.098;6.414;2023-09-12T00:35:17;7.13;;;7.03;;
3050;SDS011;1535;51.098;6.414;2023-09-12T00:37:43;6.77;;;6.67;;
3050;SDS011;1535;51.098;6.414;2023-09-12T00:40:11;7.60;;;7.50;;
3050;SDS011;1535;51.098;6.414;2023-09-12T00:42:38;14.90;;;14.20;;
3050;SDS011;1535;51.098;6.414;2023-09-12T00:45:07;16.40;;;15.50;;
3050;SDS011;1535;51.098;6.414;2023-09-12T00:47:35;17.40;;;16.40;;
3050;SDS011;1535;51.098;6.414;2023-09-12T00:50:02;17.57;;;16.57;;
3050;SDS011;1535;51.098;6.414;2023-09-12T00:52:32;17.50;;;16.50;;
3050;SDS011;1535;51.098;6.414;2023-09-12T00:55:01;17.60;;;16.60;;
3050;SDS011;1535;51.098;6.414;2023-09-12T00:57:30;17.10;;;16.20;;
3050;SDS011;1535;51.098;6.414;2023-09-12T00:59:59;17.17;;;16.27;;
3050;SDS011;1535;51.098;6.414;2023-09-12T01:02:37;16.83;;;15.93;;
3050;SDS011;1535;51.098;6.414;2023-09-12T01:05:04;16.50;;;15.70;;
3050;SDS011;1535;51.098;6.414;2023-09-12T01:07:32;16.30;;;15.50;;
3050;SDS011;1535;51.098;6.414;2023-09-12T01:10:00;16.40;;;15.60;;
3050;SDS011;1535;51.098;6.414;2023-09-12T01:12:29;16.40;;;15.60;;
3050;SDS011;1535;51.098;6.414;2023-09-12T01:14:58;15.90;;;15.20;;
3050;SDS011;1535;51.098;6.414;2023-09-12T01:17:25;15.60;;;14.90;;
3050;SDS011;1535;51.098;6.414;2023-09-12T01:19:54;16.60;;;15.80;;
3050;SDS011;1535;51.098;6.414;2023-09-12T01:22:23;16.37;;;15.60;;
3050;SDS011;1535;51.098;6.414;2023-09-12T01:28:04;16.60;;;15.80;;
3050;SDS011;1535;51.098;6.414;2023-09-12T01:30:35;16.30;;;15.60;;
3050;SDS011;1535;51.098;6.414;2023-09-12T01:33:02;16.53;;;15.73;;
3050;SDS011;1535;51.098;6.414;2023-09-12T01:35:30;16.60;;;15.80;;
3050;SDS011;1535;51.098;6.414;2023-09-12T01:37:57;16.70;;;15.90;;
3050;SDS011;1535;51.098;6.414;2023-09-12T01:40:29;16.57;;;15.77;;
3050;SDS011;1535;51.098;6.414;2023-09-12T01:43:01;17.00;;;16.20;;
3050;SDS011;1535;51.098;6.414;2023-09-12T01:45:33;16.47;;;15.77;;
3050;SDS011;1535;51.098;6.414;2023-09-12T01:48:02;15.70;;;15.00;;
3050;SDS011;1535;51.098;6.414;2023-09-12T01:50:32;15.93;;;15.23;;
3050;SDS011;1535;51.098;6.414;2023-09-12T01:52:59;15.70;;;15.00;;
3050;SDS011;1535;51.098;6.414;2023-09-12T01:55:27;15.97;;;15.27;;
3050;SDS011;1535;51.098;6.414;2023-09-12T01:57:54;15.90;;;15.20;;
3050;SDS011;1535;51.098;6.414;2023-09-12T02:00:23;15.80;;;15.10;;
3050;SDS011;1535;51.098;6.414;2023-09-12T02:02:51;15.77;;;15.07;;
3050;SDS011;1535;51.098;6.414;2023-09-12T02:05:20;16.27;;;15.57;;
3050;SDS011;1535;51.098;6.414;2023-09-12T02:07:48;15.80;;;15.10;;
3050;SDS011;1535;51.098;6.414;2023-09-12T02:10:15;15.77;;;15.07;;
3050;SDS011;1535;51.098;6.414;2023-09-12T02:12:43;15.70;;;15.00;;
3050;SDS011;1535;51.098;6.414;2023-09-12T02:15:10;16.20;;;15.50;;
3050;SDS011;1535;51.098;6.414;2023-09-12T02:17:38;15.87;;;15.17;;
3050;SDS011;1535;51.098;6.414;2023-09-12T02:20:06;15.80;;;15.10;;
3050;SDS011;1535;51.098;6.414;2023-09-12T02:22:34;15.40;;;14.80;;
3050;SDS011;1535;51.098;6.414;2023-09-12T02:25:02;15.60;;;15.00;;
3050;SDS011;1535;51.098;6.414;2023-09-12T02:27:31;15.80;;;15.10;;
3050;SDS011;1535;51.098;6.414;2023-09-12T02:29:58;16.03;;;15.33;;
3050;SDS011;1535;51.098;6.414;2023-09-12T02:32:25;15.00;;;14.40;;
3050;SDS011;1535;51.098;6.414;2023-09-12T02:34:54;14.70;;;14.20;;
3050;SDS011;1535;51.098;6.414;2023-09-12T02:37:23;15.57;;;14.97;;
3050;SDS011;1535;51.098;6.414;2023-09-12T02:39:51;15.30;;;14.70;;
3050;SDS011;1535;51.098;6.414;2023-09-12T02:42:18;15.30;;;14.70;;
3050;SDS011;1535;51.098;6.414;2023-09-12T02:44:44;15.70;;;15.10;;
3050;SDS011;1535;51.098;6.414;2023-09-12T02:47:13;15.50;;;14.90;;
3050;SDS011;1535;51.098;6.414;2023-09-12T02:49:40;15.80;;;15.20;;
3050;SDS011;1535;51.098;6.414;2023-09-12T02:52:09;16.20;;;15.50;;
3050;SDS011;1535;51.098;6.414;2023-09-12T02:54:36;15.70;;;15.10;;
3050;SDS011;1535;51.098;6.414;2023-09-12T02:57:04;16.00;;;15.40;;
3050;SDS011;1535;51.098;6.414;2023-09-12T02:59:33;16.20;;;15.50;;
3050;SDS011;1535;51.098;6.414;2023-09-12T03:02:00;16.07;;;15.40;;
3050;SDS011;1535;51.098;6.414;2023-09-12T03:04:27;16.40;;;15.70;;
3050;SDS011;1535;51.098;6.414;2023-09-12T03:06:54;16.10;;;15.40;;
3050;SDS011;1535;51.098;6.414;2023-09-12T03:09:22;16.23;;;15.53;;
3050;SDS011;1535;51.098;6.414;2023-09-12T03:11:49;15.60;;;15.00;;
3050;SDS011;1535;51.098;6.414;2023-09-12T03:14:17;16.00;;;15.30;;
3050;SDS011;1535;51.098;6.414;2023-09-12T03:16:44;16.20;;;15.50;;
3050;SDS011;1535;51.098;6.414;2023-09-12T03:19:12;15.90;;;15.20;;
3050;SDS011;1535;51.098;6.414;2023-09-12T03:21:39;16.10;;;15.40;;
3050;SDS011;1535;51.098;6.414;2023-09-12T03:24:07;16.20;;;15.50;;
3050;SDS011;1535;51.098;6.414;2023-09-12T03:26:35;16.60;;;15.90;;
3050;SDS011;1535;51.098;6.414;2023-09-12T03:29:03;16.37;;;15.67;;
3050;SDS011;1535;51.098;6.414;2023-09-12T03:31:33;16.33;;;15.63;;
3050;SDS011;1535;51.098;6.414;2023-09-12T03:34:01;16.40;;;15.70;;
3050;SDS011;1535;51.098;6.414;2023-09-12T03:36:30;16.53;;;15.83;;
3050;SDS011;1535;51.098;6.414;2023-09-12T03:38:57;15.80;;;15.10;;
3050;SDS011;1535;51.098;6.414;2023-09-12T03:41:23;16.30;;;15.60;;
3050;SDS011;1535;51.098;6.414;2023-09-12T03:43:53;16.30;;;15.60;;
3050;SDS011;1535;51.098;6.414;2023-09-12T03:46:21;16.23;;;15.53;;
3050;SDS011;1535;51.098;6.414;2023-09-12T03:48:48;16.10;;;15.40;;
3050;SDS011;1535;51.098;6.414;2023-09-12T03:51:14;15.83;;;15.23;;
3050;SDS011;1535;51.098;6.414;2023-09-12T03:53:41;16.27;;;15.57;;
3050;SDS011;1535;51.098;6.414;2023-09-12T03:56:08;15.30;;;14.70;;
3050;SDS011;1535;51.098;6.414;2023-09-12T03:58:38;16.00;;;15.30;;
3050;SDS011;1535;51.098;6.414;2023-09-12T04:01:07;16.10;;;15.40;;
3050;SDS011;1535;51.098;6.414;2023-09-12T04:03:34;15.80;;;15.20;;
3050;SDS011;1535;51.098;6.414;2023-09-12T04:06:02;15.40;;;14.80;;
3050;SDS011;1535;51.098;6.414;2023-09-12T04:08:29;15.90;;;15.30;;
3050;SDS011;1535;51.098;6.414;2023-09-12T04:10:57;16.00;;;15.30;;
3050;SDS011;1535;51.098;6.414;2023-09-12T04:13:24;16.10;;;15.40;;
3050;SDS011;1535;51.098;6.414;2023-09-12T04:15:51;15.50;;;14.90;;
3050;SDS011;1535;51.098;6.414;2023-09-12T04:18:20;15.30;;;14.70;;
3050;SDS011;1535;51.098;6.414;2023-09-12T04:20:47;14.80;;;14.30;;
3050;SDS011;1535;51.098;6.414;2023-09-12T04:23:14;14.80;;;14.30;;
3050;SDS011;1535;51.098;6.414;2023-09-12T04:25:42;15.07;;;14.53;;
3050;SDS011;1535;51.098;6.414;2023-09-12T04:28:12;14.50;;;14.00;;
3050;SDS011;1535;51.098;6.414;2023-09-12T04:30:42;14.57;;;14.07;;
3050;SDS011;1535;51.098;6.414;2023-09-12T04:33:10;15.00;;;14.50;;
3050;SDS011;1535;51.098;6.414;2023-09-12T04:35:39;15.30;;;14.70;;
3050;SDS011;1535;51.098;6.414;2023-09-12T04:38:06;15.50;;;14.90;;
3050;SDS011;1535;51.098;6.414;2023-09-12T04:40:34;15.10;;;14.50;;
3050;SDS011;1535;51.098;6.414;2023-09-12T04:43:01;15.40;;;14.80;;
3050;SDS011;1535;51.098;6.414;2023-09-12T04:45:28;15.50;;;14.90;;
3050;SDS011;1535;51.098;6.414;2023-09-12T04:47:55;15.47;;;14.87;;
3050;SDS011;1535;51.098;6.414;2023-09-12T04:50:22;15.00;;;14.50;;
3050;SDS011;1535;51.098;6.414;2023-09-12T04:52:50;15.20;;;14.60;;
3050;SDS011;1535;51.098;6.414;2023-09-12T04:55:16;15.00;;;14.50;;
3050;SDS011;1535;51.098;6.414;2023-09-12T04:57:43;14.57;;;14.07;;
3050;SDS011;1535;51.098;6.414;2023-09-12T05:00:14;14.70;;;14.20;;
3050;SDS011;1535;51.098;6.414;2023-09-12T05:02:42;14.70;;;14.20;;
3050;SDS011;1535;51.098;6.414;2023-09-12T05:05:08;14.53;;;14.03;;
3050;SDS011;1535;51.098;6.414;2023-09-12T05:07:35;14.30;;;13.80;;
3050;SDS011;1535;51.098;6.414;2023-09-12T05:10:04;13.83;;;13.43;;
3050;SDS011;1535;51.098;6.414;2023-09-12T05:12:32;13.53;;;13.13;;
3050;SDS011;1535;51.098;6.414;2023-09-12T05:14:59;13.60;;;13.20;;
3050;SDS011;1535;51.098;6.414;2023-09-12T05:17:26;13.70;;;13.30;;
3050;SDS011;1535;51.098;6.414;2023-09-12T05:19:53;12.70;;;12.30;;
3050;SDS011;1535;51.098;6.414;2023-09-12T05:22:20;12.77;;;12.37;;
3050;SDS011;1535;51.098;6.414;2023-09-12T05:24:47;14.10;;;13.60;;
3050;SDS011;1535;51.098;6.414;2023-09-12T05:27:16;13.70;;;13.20;;
3050;SDS011;1535;51.098;6.414;2023-09-12T05:29:44;10.60;;;10.40;;
3050;SDS011;1535;51.098;6.414;2023-09-12T05:32:10;9.40;;;9.20;;
3050;SDS011;1535;51.098;6.414;2023-09-12T05:34:37;8.77;;;8.67;;
3050;SDS011;1535;51.098;6.414;2023-09-12T05:37:04;8.30;;;8.20;;
3050;SDS011;1535;51.098;6.414;2023-09-12T05:39:31;9.03;;;8.93;;
3050;SDS011;1535;51.098;6.414;2023-09-12T05:41:58;9.40;;;9.20;;
3050;SDS011;1535;51.098;6.414;2023-09-12T05:44:27;9.40;;;9.20;;
3050;SDS011;1535;51.098;6.414;2023-09-12T05:46:54;9.37;;;9.17;;
3050;SDS011;1535;51.098;6.414;2023-09-12T05:49:21;9.07;;;8.97;;
3050;SDS011;1535;51.098;6.414;2023-09-12T05:51:49;7.80;;;7.70;;
3050;SDS011;1535;51.098;6.414;2023-09-12T05:54:16;7.27;;;7.17;;
3050;SDS011;1535;51.098;6.414;2023-09-12T05:56:44;7.90;;;7.80;;
3050;SDS011;1535;51.098;6.414;2023-09-12T05:59:12;8.57;;;8.47;;
3050;SDS011;1535;51.098;6.414;2023-09-12T06:01:42;7.80;;;7.70;;
3050;SDS011;1535;51.098;6.414;2023-09-12T06:04:09;8.90;;;8.80;;
3050;SDS011;1535;51.098;6.414;2023-09-12T06:06:35;8.30;;;8.20;;
3050;SDS011;1535;51.098;6.414;2023-09-12T06:09:04;8.70;;;8.60;;
3050;SDS011;1535;51.098;6.414;2023-09-12T06:11:31;8.90;;;8.80;;
3050;SDS011;1535;51.098;6.414;2023-09-12T06:13:58;8.90;;;8.80;;
3050;SDS011;1535;51.098;6.414;2023-09-12T06:16:26;9.50;;;9.30;;
3050;SDS011;1535;51.098;6.414;2023-09-12T06:18:55;8.50;;;8.40;;
3050;SDS011;1535;51.098;6.414;2023-09-12T06:21:21;9.17;;;9.03;;
3050;SDS011;1535;51.098;6.414;2023-09-12T06:24:07;9.00;;;8.90;;
3050;SDS011;1535;51.098;6.414;2023-09-12T06:26:35;9.50;;;9.30;;
3050;SDS011;1535;51.098;6.414;2023-09-12T06:29:02;9.37;;;9.17;;
3050;SDS011;1535;51.098;6.414;2023-09-12T06:31:28;9.43;;;9.23;;
3050;SDS011;1535;51.098;6.414;2023-09-12T06:33:56;9.70;;;9.50;;
3050;SDS011;1535;51.098;6.414;2023-09-12T06:36:24;9.60;;;9.40;;
3050;SDS011;1535;51.098;6.414;2023-09-12T06:38:51;9.60;;;9.40;;
3050;SDS011;1535;51.098;6.414;2023-09-12T06:41:18;9.30;;;9.10;;
3050;SDS011;1535;51.098;6.414;2023-09-12T06:43:47;9.30;;;9.10;;
3050;SDS011;1535;51.098;6.414;2023-09-12T06:46:14;8.67;;;8.57;;
3050;SDS011;1535;51.098;6.414;2023-09-12T06:48:43;9.37;;;9.17;;
3050;SDS011;1535;51.098;6.414;2023-09-12T06:51:12;9.80;;;9.60;;
3050;SDS011;1535;51.098;6.414;2023-09-12T06:53:40;10.20;;;10.00;;
3050;SDS011;1535;51.098;6.414;2023-09-12T06:56:07;8.80;;;8.70;;
3050;SDS011;1535;51.098;6.414;2023-09-12T06:58:34;8.97;;;8.87;;
3050;SDS011;1535;51.098;6.414;2023-09-12T07:01:02;8.80;;;8.70;;
3050;SDS011;1535;51.098;6.414;2023-09-12T07:03:31;8.50;;;8.40;;
3050;SDS011;1535;51.098;6.414;2023-09-12T07:05:59;9.20;;;9.00;;
3050;SDS011;1535;51.098;6.414;2023-09-12T07:08:28;9.63;;;9.43;;
3050;SDS011;1535;51.098;6.414;2023-09-12T07:10:56;9.60;;;9.40;;
3050;SDS011;1535;51.098;6.414;2023-09-12T07:13:25;9.40;;;9.20;;
3050;SDS011;1535;51.098;6.414;2023-09-12T07:15:53;10.20;;;10.00;;
3050;SDS011;1535;51.098;6.414;2023-09-12T07:18:22;9.73;;;9.53;;
3050;SDS011;1535;51.098;6.414;2023-09-12T07:20:57;9.30;;;9.10;;
3050;SDS011;1535;51.098;6.414;2023-09-12T07:23:24;10.00;;;9.80;;
3050;SDS011;1535;51.098;6.414;2023-09-12T07:25:52;10.10;;;9.90;;
3050;SDS011;1535;51.098;6.414;2023-09-12T07:28:22;9.83;;;9.63;;
3050;SDS011;1535;51.098;6.414;2023-09-12T07:30:50;10.80;;;10.60;;
3050;SDS011;1535;51.098;6.414;2023-09-12T07:33:17;10.47;;;10.27;;
3050;SDS011;1535;51.098;6.414;2023-09-12T07:35:43;9.90;;;9.70;;
3050;SDS011;1535;51.098;6.414;2023-09-12T07:38:11;9.30;;;9.10;;
3050;SDS011;1535;51.098;6.414;2023-09-12T07:40:40;9.37;;;9.17;;
3050;SDS011;1535;51.098;6.414;2023-09-12T07:43:08;9.90;;;9.70;;
3050;SDS011;1535;51.098;6.414;2023-09-12T07:45:36;10.10;;;9.90;;
3050;SDS011;1535;51.098;6.414;2023-09-12T07:48:03;9.90;;;9.70;;
3050;SDS011;1535;51.098;6.414;2023-09-12T07:50:32;10.10;;;9.90;;
3050;SDS011;1535;51.098;6.414;2023-09-12T07:52:58;9.80;;;9.60;;
3050;SDS011;1535;51.098;6.414;2023-09-12T07:55:25;9.93;;;9.73;;
3050;SDS011;1535;51.098;6.414;2023-09-12T07:57:56;9.57;;;9.37;;
3050;SDS011;1535;51.098;6.414;2023-09-12T08:00:25;9.70;;;9.50;;
3050;SDS011;1535;51.098;6.414;2023-09-12T08:02:52;8.23;;;8.13;;
3050;SDS011;1535;51.098;6.414;2023-09-12T08:05:20;7.60;;;7.50;;
3050;SDS011;1535;51.098;6.414;2023-09-12T08:07:48;6.70;;;6.60;;
3050;SDS011;1535;51.098;6.414;2023-09-12T08:10:15;6.53;;;6.43;;
3050;SDS011;1535;51.098;6.414;2023-09-12T08:12:42;6.60;;;6.50;;
3050;SDS011;1535;51.098;6.414;2023-09-12T08:15:09;6.00;;;5.90;;
3050;SDS011;1535;51.098;6.414;2023-09-12T08:17:37;5.60;;;5.50;;
3050;SDS011;1535;51.098;6.414;2023-09-12T08:20:05;6.50;;;6.40;;
3050;SDS011;1535;51.098;6.414;2023-09-12T08:22:35;6.80;;;6.70;;
3050;SDS011;1535;51.098;6.414;2023-09-12T08:25:01;6.90;;;6.80;;
3050;SDS011;1535;51.098;6.414;2023-09-12T08:27:29;7.60;;;7.50;;
3050;SDS011;1535;51.098;6.414;2023-09-12T08:29:56;7.67;;;7.57;;
3050;SDS011;1535;51.098;6.414;2023-09-12T08:32:23;8.10;;;8.00;;
3050;SDS011;1535;51.098;6.414;2023-09-12T08:34:52;7.90;;;7.80;;
3050;SDS011;1535;51.098;6.414;2023-09-12T08:37:19;8.40;;;8.30;;
3050;SDS011;1535;51.098;6.414;2023-09-12T08:39:46;8.20;;;8.10;;
3050;SDS011;1535;51.098;6.414;2023-09-12T08:42:14;7.97;;;7.87;;
3050;SDS011;1535;51.098;6.414;2023-09-12T08:44:42;9.33;;;9.13;;
3050;SDS011;1535;51.098;6.414;2023-09-12T08:47:09;9.63;;;9.43;;
3050;SDS011;1535;51.098;6.414;2023-09-12T08:49:37;9.20;;;9.00;;
3050;SDS011;1535;51.098;6.414;2023-09-12T08:52:06;9.40;;;9.20;;
3050;SDS011;1535;51.098;6.414;2023-09-12T08:54:33;9.57;;;9.37;;
3050;SDS011;1535;51.098;6.414;2023-09-12T08:57:01;8.83;;;8.67;;
3050;SDS011;1535;51.098;6.414;2023-09-12T08:59:30;8.60;;;8.50;;
3050;SDS011;1535;51.098;6.414;2023-09-12T09:01:59;8.20;;;8.10;;
3050;SDS011;1535;51.098;6.414;2023-09-12T09:04:27;8.30;;;8.20;;
3050;SDS011;1535;51.098;6.414;2023-09-12T09:06:56;8.97;;;8.77;;
3050;SDS011;1535;51.098;6.414;2023-09-12T09:09:27;9.30;;;9.10;;
3050;SDS011;1535;51.098;6.414;2023-09-12T09:11:54;9.10;;;8.90;;
3050;SDS011;1535;51.098;6.414;2023-09-12T09:14:21;8.60;;;8.50;;
3050;SDS011;1535;51.098;6.414;2023-09-12T09:16:48;8.60;;;8.50;;
3050;SDS011;1535;51.098;6.414;2023-09-12T09:19:15;9.50;;;9.30;;
3050;SDS011;1535;51.098;6.414;2023-09-12T09:21:43;10.10;;;9.90;;
3050;SDS011;1535;51.098;6.414;2023-09-12T09:24:11;10.10;;;9.90;;
3050;SDS011;1535;51.098;6.414;2023-09-12T09:26:43;9.87;;;9.67;;
3050;SDS011;1535;51.098;6.414;2023-09-12T09:29:14;10.30;;;10.10;;
3050;SDS011;1535;51.098;6.414;2023-09-12T09:31:42;10.33;;;10.13;;
3050;SDS011;1535;51.098;6.414;2023-09-12T09:34:10;11.07;;;10.77;;
3050;SDS011;1535;51.098;6.414;2023-09-12T09:36:40;10.30;;;10.10;;
3050;SDS011;1535;51.098;6.414;2023-09-12T09:39:08;11.50;;;11.20;;
3050;SDS011;1535;51.098;6.414;2023-09-12T09:41:36;11.50;;;11.20;;
3050;SDS011;1535;51.098;6.414;2023-09-12T09:44:05;12.00;;;11.70;;
3050;SDS011;1535;51.098;6.414;2023-09-12T09:46:33;13.30;;;12.90;;
3050;SDS011;1535;51.098;6.414;2023-09-12T09:49:01;13.53;;;13.13;;
3050;SDS011;1535;51.098;6.414;2023-09-12T09:51:29;13.77;;;13.37;;
3050;SDS011;1535;51.098;6.414;2023-09-12T09:53:57;13.97;;;13.57;;
3050;SDS011;1535;51.098;6.414;2023-09-12T09:56:26;14.30;;;13.80;;
3050;SDS011;1535;51.098;6.414;2023-09-12T09:58:53;13.90;;;13.50;;
3050;SDS011;1535;51.098;6.414;2023-09-12T10:01:24;14.80;;;14.30;;
3050;SDS011;1535;51.098;6.414;2023-09-12T10:03:55;14.60;;;14.10;;
3050;SDS011;1535;51.098;6.414;2023-09-12T10:06:25;14.30;;;13.80;;
3050;SDS011;1535;51.098;6.414;2023-09-12T10:08:54;14.53;;;14.03;;
3050;SDS011;1535;51.098;6.414;2023-09-12T10:11:23;14.50;;;14.00;;
3050;SDS011;1535;51.098;6.414;2023-09-12T10:13:52;14.73;;;14.23;;
3050;SDS011;1535;51.098;6.414;2023-09-12T10:16:20;14.57;;;14.07;;
3050;SDS011;1535;51.098;6.414;2023-09-12T10:18:56;14.70;;;14.20;;
3050;SDS011;1535;51.098;6.414;2023-09-12T10:21:28;13.90;;;13.50;;
3050;SDS011;1535;51.098;6.414;2023-09-12T10:23:57;14.50;;;14.00;;
3050;SDS011;1535;51.098;6.414;2023-09-12T10:26:25;15.27;;;14.77;;
3050;SDS011;1535;51.098;6.414;2023-09-12T10:28:53;14.90;;;14.40;;
3050;SDS011;1535;51.098;6.414;2023-09-12T10:31:21;14.50;;;14.00;;
3050;SDS011;1535;51.098;6.414;2023-09-12T10:33:51;14.63;;;14.13;;
3050;SDS011;1535;51.098;6.414;2023-09-12T10:36:19;14.83;;;14.33;;
3050;SDS011;1535;51.098;6.414;2023-09-12T10:38:48;15.57;;;15.07;;
3050;SDS011;1535;51.098;6.414;2023-09-12T10:41:17;15.20;;;14.70;;
3050;SDS011;1535;51.098;6.414;2023-09-12T10:43:46;15.07;;;14.57;;
3050;SDS011;1535;51.098;6.414;2023-09-12T10:46:17;14.40;;;13.90;;
3050;SDS011;1535;51.098;6.414;2023-09-12T10:48:44;14.80;;;14.30;;
3050;SDS011;1535;51.098;6.414;2023-09-12T10:51:12;14.53;;;14.03;;
3050;SDS011;1535;51.098;6.414;2023-09-12T10:53:45;14.40;;;13.90;;
3050;SDS011;1535;51.098;6.414;2023-09-12T10:56:16;14.70;;;14.20;;
3050;SDS011;1535;51.098;6.414;2023-09-12T11:01:39;14.10;;;13.70;;
3050;SDS011;1535;51.098;6.414;2023-09-12T11:07:04;14.97;;;14.47;;
3050;SDS011;1535;51.098;6.414;2023-09-12T11:10:17;14.97;;;14.47;;
3050;SDS011;1535;51.098;6.414;2023-09-12T11:12:46;14.60;;;14.10;;
3050;SDS011;1535;51.098;6.414;2023-09-12T11:15:15;15.60;;;15.00;;
3050;SDS011;1535;51.098;6.414;2023-09-12T11:17:43;14.50;;;14.00;;
3050;SDS011;1535;51.098;6.414;2023-09-12T11:20:11;14.77;;;14.27;;
3050;SDS011;1535;51.098;6.414;2023-09-12T11:22:41;14.70;;;14.20;;
3050;SDS011;1535;51.098;6.414;2023-09-12T11:25:16;15.13;;;14.63;;
3050;SDS011;1535;51.098;6.414;2023-09-12T11:28:01;15.27;;;14.77;;
3050;SDS011;1535;51.098;6.414;2023-09-12T11:30:30;15.53;;;14.93;;
3050;SDS011;1535;51.098;6.414;2023-09-12T11:32:57;15.87;;;15.27;;
3050;SDS011;1535;51.098;6.414;2023-09-12T11:35:26;15.30;;;14.80;;
3050;SDS011;1535;51.098;6.414;2023-09-12T11:37:55;15.53;;;15.00;;
3050;SDS011;1535;51.098;6.414;2023-09-12T11:40:23;15.30;;;14.80;;
3050;SDS011;1535;51.098;6.414;2023-09-12T11:42:51;15.73;;;15.13;;
3050;SDS011;1535;51.098;6.414;2023-09-12T11:45:19;15.77;;;15.17;;
3050;SDS011;1535;51.098;6.414;2023-09-12T11:47:48;15.57;;;15.07;;
3050;SDS011;1535;51.098;6.414;2023-09-12T11:50:28;15.63;;;15.03;;
3050;SDS011;1535;51.098;6.414;2023-09-12T11:53:01;15.50;;;15.00;;
3050;SDS011;1535;51.098;6.414;2023-09-12T11:55:30;15.03;;;14.53;;
3050;SDS011;1535;51.098;6.414;2023-09-12T11:57:58;15.53;;;15.03;;
3050;SDS011;1535;51.098;6.414;2023-09-12T12:00:25;15.13;;;14.63;;
3050;SDS011;1535;51.098;6.414;2023-09-12T12:02:53;16.27;;;15.70;;
3050;SDS011;1535;51.098;6.414;2023-09-12T12:05:20;16.00;;;15.50;;
3050;SDS011;1535;51.098;6.414;2023-09-12T12:07:47;15.70;;;15.20;;
3050;SDS011;1535;51.098;6.414;2023-09-12T12:10:17;15.40;;;14.90;;
3050;SDS011;1535;51.098;6.414;2023-09-12T12:12:44;14.97;;;14.47;;
3050;SDS011;1535;51.098;6.414;2023-09-12T12:15:12;15.67;;;15.17;;
3050;SDS011;1535;51.098;6.414;2023-09-12T12:17:40;15.60;;;15.10;;
3050;SDS011;1535;51.098;6.414;2023-09-12T12:20:08;15.30;;;14.80;;
3050;SDS011;1535;51.098;6.414;2023-09-12T12:22:36;15.10;;;14.60;;
3050;SDS011;1535;51.098;6.414;2023-09-12T12:25:07;16.10;;;15.60;;
3050;SDS011;1535;51.098;6.414;2023-09-12T12:27:36;15.80;;;15.30;;
3050;SDS011;1535;51.098;6.414;2023-09-12T12:30:05;15.60;;;15.10;;
3050;SDS011;1535;51.098;6.414;2023-09-12T12:32:34;14.87;;;14.37;;
3050;SDS011;1535;51.098;6.414;2023-09-12T12:35:03;15.20;;;14.70;;
3050;SDS011;1535;51.098;6.414;2023-09-12T12:37:32;15.20;;;14.70;;
3050;SDS011;1535;51.098;6.414;2023-09-12T12:40:00;14.77;;;14.27;;
3050;SDS011;1535;51.098;6.414;2023-09-12T12:42:33;15.10;;;14.60;;
3050;SDS011;1535;51.098;6.414;2023-09-12T12:45:05;15.63;;;15.13;;
3050;SDS011;1535;51.098;6.414;2023-09-12T12:47:38;15.90;;;15.40;;
3050;SDS011;1535;51.098;6.414;2023-09-12T12:50:07;15.37;;;14.87;;
3050;SDS011;1535;51.098;6.414;2023-09-12T12:52:35;15.10;;;14.60;;
3050;SDS011;1535;51.098;6.414;2023-09-12T12:55:03;15.50;;;15.00;;
3050;SDS011;1535;51.098;6.414;2023-09-12T12:57:31;15.43;;;14.93;;
3050;SDS011;1535;51.098;6.414;2023-09-12T13:00:04;15.20;;;14.70;;
3050;SDS011;1535;51.098;6.414;2023-09-12T13:02:33;15.50;;;15.00;;
3050;SDS011;1535;51.098;6.414;2023-09-12T13:05:01;15.43;;;14.93;;
3050;SDS011;1535;51.098;6.414;2023-09-12T13:07:28;15.70;;;15.20;;
3050;SDS011;1535;51.098;6.414;2023-09-12T13:09:55;15.07;;;14.57;;
3050;SDS011;1535;51.098;6.414;2023-09-12T13:12:21;14.73;;;14.30;;
3050;SDS011;1535;51.098;6.414;2023-09-12T13:14:48;15.33;;;14.83;;
3050;SDS011;1535;51.098;6.414;2023-09-12T13:17:18;14.47;;;14.07;;
3050;SDS011;1535;51.098;6.414;2023-09-12T13:19:45;14.90;;;14.40;;
3050;SDS011;1535;51.098;6.414;2023-09-12T13:22:12;14.90;;;14.50;;
3050;SDS011;1535;51.098;6.414;2023-09-12T13:24:39;14.50;;;14.10;;
3050;SDS011;1535;51.098;6.414;2023-09-12T13:27:06;14.20;;;13.80;;
3050;SDS011;1535;51.098;6.414;2023-09-12T13:29:33;15.00;;;14.50;;
3050;SDS011;1535;51.098;6.414;2023-09-12T13:32:00;14.27;;;13.87;;
3050;SDS011;1535;51.098;6.414;2023-09-12T13:34:28;14.77;;;14.37;;
3050;SDS011;1535;51.098;6.414;2023-09-12T13:36:55;14.30;;;13.90;;
3050;SDS011;1535;51.098;6.414;2023-09-12T13:39:23;14.33;;;13.93;;
3050;SDS011;1535;51.098;6.414;2023-09-12T13:41:50;14.63;;;14.23;;
3050;SDS011;1535;51.098;6.414;2023-09-12T13:44:17;14.93;;;14.47;;
3050;SDS011;1535;51.098;6.414;2023-09-12T13:46:44;15.00;;;14.50;;
3050;SDS011;1535;51.098;6.414;2023-09-12T13:49:12;14.80;;;14.40;;
3050;SDS011;1535;51.098;6.414;2023-09-12T13:51:40;15.03;;;14.53;;
3050;SDS011;1535;51.098;6.414;2023-09-12T13:54:07;14.53;;;14.13;;
3050;SDS011;1535;51.098;6.414;2023-09-12T13:56:39;14.97;;;14.50;;
3050;SDS011;1535;51.098;6.414;2023-09-12T13:59:06;15.13;;;14.63;;
3050;SDS011;1535;51.098;6.414;2023-09-12T14:01:33;14.70;;;14.30;;
3050;SDS011;1535;51.098;6.414;2023-09-12T14:04:00;14.90;;;14.50;;
3050;SDS011;1535;51.098;6.414;2023-09-12T14:06:27;15.20;;;14.73;;
3050;SDS011;1535;51.098;6.414;2023-09-12T14:08:55;15.13;;;14.63;;
3050;SDS011;1535;51.098;6.414;2023-09-12T14:11:22;15.30;;;14.80;;
3050;SDS011;1535;51.098;6.414;2023-09-12T14:13:49;15.47;;;14.97;;
3050;SDS011;1535;51.098;6.414;2023-09-12T14:16:16;16.07;;;15.57;;
3050;SDS011;1535;51.098;6.414;2023-09-12T14:18:43;14.90;;;14.47;;
3050;SDS011;1535;51.098;6.414;2023-09-12T14:21:10;14.77;;;14.37;;
3050;SDS011;1535;51.098;6.414;2023-09-12T14:23:37;14.70;;;14.30;;
3050;SDS011;1535;51.098;6.414;2023-09-12T14:26:06;15.17;;;14.67;;
3050;SDS011;1535;51.098;6.414;2023-09-12T14:28:34;14.83;;;14.37;;
3050;SDS011;1535;51.098;6.414;2023-09-12T14:31:01;14.90;;;14.47;;
3050;SDS011;1535;51.098;6.414;2023-09-12T14:33:29;15.30;;;14.80;;
3050;SDS011;1535;51.098;6.414;2023-09-12T14:35:56;14.70;;;14.30;;
3050;SDS011;1535;51.098;6.414;2023-09-12T14:38:23;14.40;;;14.00;;
3050;SDS011;1535;51.098;6.414;2023-09-12T14:40:50;14.20;;;13.80;;
3050;SDS011;1535;51.098;6.414;2023-09-12T14:43:20;15.00;;;14.53;;
3050;SDS011;1535;51.098;6.414;2023-09-12T14:45:48;14.30;;;13.90;;
3050;SDS011;1535;51.098;6.414;2023-09-12T14:48:15;14.53;;;14.13;;
3050;SDS011;1535;51.098;6.414;2023-09-12T14:50:42;14.63;;;14.23;;
3050;SDS011;1535;51.098;6.414;2023-09-12T14:53:14;15.30;;;14.80;;
3050;SDS011;1535;51.098;6.414;2023-09-12T14:55:42;15.20;;;14.70;;
3050;SDS011;1535;51.098;6.414;2023-09-12T14:58:09;15.00;;;14.53;;
3050;SDS011;1535;51.098;6.414;2023-09-12T15:00:38;14.60;;;14.20;;
3050;SDS011;1535;51.098;6.414;2023-09-12T15:03:06;15.23;;;14.73;;
3050;SDS011;1535;51.098;6.414;2023-09-12T15:05:32;14.50;;;14.10;;
3050;SDS011;1535;51.098;6.414;2023-09-12T15:07:59;13.93;;;13.53;;
3050;SDS011;1535;51.098;6.414;2023-09-12T15:10:26;14.57;;;14.13;;